createdAt,value
2023-03-28T00:00:16.530Z,2.67
2023-03-28T00:02:42.871Z,2.84
2023-03-28T00:05:09.186Z,2.66
2023-03-28T00:07:35.591Z,2.93
2023-03-28T00:10:01.880Z,2.74
2023-03-28T00:12:28.178Z,2.73
2023-03-28T00:14:54.463Z,3.36
2023-03-28T00:17:20.828Z,3.36
2023-03-28T00:19:47.143Z,3.16
2023-03-28T00:22:13.416Z,2.92
2023-03-28T00:24:39.719Z,3.15
2023-03-28T00:27:05.994Z,2.80
2023-03-28T00:29:32.275Z,2.88
2023-03-28T00:31:58.579Z,2.79
2023-03-28T00:34:24.863Z,2.92
2023-03-28T00:36:51.162Z,2.95
2023-03-28T00:39:17.451Z,2.88
2023-03-28T00:41:43.724Z,2.97
2023-03-28T00:44:10.024Z,3.20
2023-03-28T00:46:36.459Z,2.89
2023-03-28T00:49:02.820Z,3.12
2023-03-28T00:51:29.106Z,2.90
2023-03-28T00:53:55.413Z,3.00
2023-03-28T00:56:21.703Z,3.03
2023-03-28T00:58:48.025Z,3.03
2023-03-28T01:01:14.364Z,2.89
2023-03-28T01:03:40.757Z,2.41
2023-03-28T01:06:07.151Z,2.47
2023-03-28T01:08:33.593Z,2.64
2023-03-28T01:10:59.874Z,2.71
2023-03-28T01:13:26.162Z,2.96
2023-03-28T01:15:52.569Z,2.94
2023-03-28T01:18:18.902Z,2.83
2023-03-28T01:20:45.189Z,2.88
2023-03-28T01:23:11.501Z,3.02
2023-03-28T01:25:37.806Z,2.99
2023-03-28T01:28:04.104Z,2.76
2023-03-28T01:30:30.420Z,2.76
2023-03-28T01:32:56.761Z,2.71
2023-03-28T01:35:23.104Z,2.80
2023-03-28T01:37:49.432Z,2.83
2023-03-28T01:40:15.779Z,2.86
2023-03-28T01:42:42.073Z,2.73
2023-03-28T01:45:08.376Z,2.76
2023-03-28T01:47:34.720Z,2.67
2023-03-28T01:50:01.021Z,2.73
2023-03-28T01:52:27.320Z,2.73
2023-03-28T01:54:53.604Z,2.72
2023-03-28T01:57:20.029Z,2.73
2023-03-28T01:59:46.463Z,2.74
2023-03-28T02:02:12.781Z,2.68
2023-03-28T02:04:39.075Z,2.61
2023-03-28T02:07:05.391Z,2.82
2023-03-28T02:09:31.699Z,2.89
2023-03-28T02:11:58.152Z,3.09
2023-03-28T02:14:24.528Z,2.77
2023-03-28T02:16:50.933Z,2.70
2023-03-28T02:19:17.254Z,2.37
2023-03-28T02:21:43.596Z,2.48
2023-03-28T02:24:09.878Z,2.39
2023-03-28T02:26:36.154Z,2.34
2023-03-28T02:29:02.457Z,2.38
2023-03-28T02:31:28.771Z,2.25
2023-03-28T02:33:56.686Z,2.20
2023-03-28T02:36:23.010Z,2.22
2023-03-28T02:38:49.416Z,2.21
2023-03-28T02:41:15.727Z,2.22
2023-03-28T02:43:42.041Z,2.08
2023-03-28T02:46:08.366Z,2.26
2023-03-28T02:48:34.684Z,2.27
2023-03-28T02:51:00.988Z,2.27
2023-03-28T02:53:27.322Z,2.35
2023-03-28T02:55:53.635Z,2.18
2023-03-28T02:58:19.941Z,2.09
2023-03-28T03:00:46.230Z,2.22
2023-03-28T03:03:12.555Z,2.44
2023-03-28T03:05:38.889Z,2.28
2023-03-28T03:08:05.198Z,2.35
2023-03-28T03:10:31.505Z,2.55
2023-03-28T03:12:57.823Z,2.49
2023-03-28T03:15:24.121Z,2.69
2023-03-28T03:17:50.428Z,2.60
2023-03-28T03:20:17.904Z,2.51
2023-03-28T03:22:44.195Z,2.45
2023-03-28T03:25:11.908Z,2.46
2023-03-28T03:27:40.142Z,2.52
2023-03-28T03:30:06.448Z,2.32
2023-03-28T03:32:32.783Z,2.24
2023-03-28T03:34:59.124Z,2.57
2023-03-28T03:37:25.414Z,2.28
2023-03-28T03:39:51.704Z,2.38
2023-03-28T03:42:18.029Z,2.47
2023-03-28T03:44:44.328Z,2.73
2023-03-28T03:47:10.652Z,2.63
2023-03-28T03:49:36.968Z,2.97
2023-03-28T03:52:03.288Z,2.44
2023-03-28T03:54:29.572Z,2.21
2023-03-28T03:56:55.932Z,2.31
2023-03-28T03:59:22.235Z,2.40
2023-03-28T04:01:48.567Z,2.45
2023-03-28T04:04:14.951Z,2.96
2023-03-28T04:06:41.276Z,2.76
2023-03-28T04:09:07.569Z,2.45
2023-03-28T04:11:33.903Z,2.42
2023-03-28T04:14:00.193Z,2.31
2023-03-28T04:16:26.518Z,2.34
2023-03-28T04:18:52.917Z,2.26
2023-03-28T04:21:19.229Z,2.25
2023-03-28T04:23:45.518Z,2.36
2023-03-28T04:26:11.859Z,3.03
2023-03-28T04:28:38.232Z,2.84
2023-03-28T04:31:04.616Z,2.51
2023-03-28T04:33:30.966Z,2.40
2023-03-28T04:35:57.565Z,2.59
2023-03-28T04:38:23.985Z,2.41
2023-03-28T04:40:50.305Z,2.29
2023-03-28T04:43:16.610Z,2.35
2023-03-28T04:45:42.914Z,2.42
2023-03-28T04:48:09.333Z,2.47
2023-03-28T04:50:35.930Z,2.53
2023-03-28T04:53:02.357Z,2.67
2023-03-28T04:55:28.709Z,2.57
2023-03-28T04:57:55.009Z,2.65
2023-03-28T05:00:21.319Z,2.72
2023-03-28T05:02:47.794Z,2.77
2023-03-28T05:05:14.195Z,2.51
2023-03-28T05:07:40.522Z,2.61
2023-03-28T05:10:06.857Z,2.72
2023-03-28T05:12:33.150Z,2.39
2023-03-28T05:14:59.466Z,2.43
2023-03-28T05:17:25.825Z,2.14
2023-03-28T05:19:52.144Z,2.71
2023-03-28T05:22:18.442Z,2.52
2023-03-28T05:24:44.751Z,2.62
2023-03-28T05:27:11.047Z,2.87
2023-03-28T05:29:37.338Z,3.22
2023-03-28T05:32:03.709Z,3.39
2023-03-28T05:34:30.032Z,3.39
2023-03-28T05:36:56.332Z,3.59
2023-03-28T05:39:22.661Z,3.82
2023-03-28T05:41:48.964Z,4.06
2023-03-28T05:44:16.840Z,4.39
2023-03-28T05:46:44.519Z,4.05
2023-03-28T05:49:10.815Z,4.49
2023-03-28T05:51:37.119Z,5.02
2023-03-28T05:54:03.447Z,4.89
2023-03-28T05:56:29.743Z,4.82
2023-03-28T05:58:56.035Z,5.26
2023-03-28T06:01:22.343Z,5.30
2023-03-28T06:03:48.654Z,5.11
2023-03-28T06:06:15.004Z,5.10
2023-03-28T06:08:41.316Z,5.09
2023-03-28T06:11:07.610Z,5.36
2023-03-28T06:13:33.942Z,5.38
2023-03-28T06:16:00.267Z,4.96
2023-03-28T06:18:26.573Z,5.65
2023-03-28T06:20:52.902Z,5.95
2023-03-28T06:23:19.222Z,5.98
2023-03-28T06:25:45.507Z,6.60
2023-03-28T06:28:11.817Z,6.28
2023-03-28T06:30:38.134Z,6.36
2023-03-28T06:33:04.503Z,6.20
2023-03-28T06:35:30.894Z,7.06
2023-03-28T06:37:57.275Z,6.72
2023-03-28T06:40:23.787Z,6.87
2023-03-28T06:42:50.083Z,6.89
2023-03-28T06:45:16.405Z,7.03
2023-03-28T06:47:42.725Z,6.93
2023-03-28T06:50:09.207Z,7.10
2023-03-28T06:52:35.727Z,6.24
2023-03-28T06:55:02.035Z,6.63
2023-03-28T06:57:28.326Z,6.98
2023-03-28T06:59:54.826Z,6.56
2023-03-28T07:02:21.241Z,6.63
2023-03-28T07:04:47.596Z,6.70
2023-03-28T07:07:13.922Z,6.49
2023-03-28T07:09:40.218Z,6.63
2023-03-28T07:12:06.524Z,6.28
2023-03-28T07:14:32.840Z,6.24
2023-03-28T07:16:59.185Z,6.34
2023-03-28T07:19:25.552Z,6.17
2023-03-28T07:21:51.857Z,6.45
2023-03-28T07:24:18.178Z,6.31
2023-03-28T07:26:44.470Z,6.59
2023-03-28T07:29:10.791Z,6.36
2023-03-28T07:31:37.105Z,6.54
2023-03-28T07:34:03.449Z,6.61
2023-03-28T07:36:29.795Z,6.63
2023-03-28T07:38:56.109Z,6.29
2023-03-28T07:41:22.474Z,6.03
2023-03-28T07:43:48.868Z,5.72
2023-03-28T07:46:15.228Z,5.33
2023-03-28T07:48:41.567Z,5.41
2023-03-28T07:51:07.887Z,5.63
2023-03-28T07:53:34.196Z,4.92
2023-03-28T07:56:00.498Z,4.58
2023-03-28T07:58:26.822Z,4.96
2023-03-28T08:00:53.129Z,5.25
2023-03-28T08:03:19.501Z,5.32
2023-03-28T08:05:45.915Z,5.15
2023-03-28T08:08:12.315Z,5.33
2023-03-28T08:10:38.614Z,5.73
2023-03-28T08:13:04.928Z,5.79
2023-03-28T08:15:31.253Z,6.02
2023-03-28T08:17:57.587Z,5.82
2023-03-28T08:20:23.957Z,6.05
2023-03-28T08:22:50.252Z,6.29
2023-03-28T08:25:16.570Z,6.36
2023-03-28T08:27:42.901Z,5.69
2023-03-28T08:30:09.211Z,5.86
2023-03-28T08:32:35.565Z,5.46
2023-03-28T08:35:01.887Z,5.44
2023-03-28T08:37:28.184Z,5.84
2023-03-28T08:39:54.531Z,5.75
2023-03-28T08:42:20.861Z,5.92
2023-03-28T08:44:48.416Z,5.73
2023-03-28T08:47:15.334Z,4.51
2023-03-28T08:49:41.765Z,4.29
2023-03-28T08:52:08.072Z,3.95
2023-03-28T08:54:34.442Z,4.43
2023-03-28T08:57:00.884Z,4.26
2023-03-28T08:59:27.199Z,4.56
2023-03-28T09:01:53.535Z,4.06
2023-03-28T09:04:20.068Z,4.13
2023-03-28T09:06:46.408Z,3.72
2023-03-28T09:09:12.722Z,4.05
2023-03-28T09:11:39.046Z,3.94
2023-03-28T09:14:05.346Z,3.23
2023-03-28T09:16:31.780Z,3.42
2023-03-28T09:18:58.156Z,3.65
2023-03-28T09:21:24.465Z,3.59
2023-03-28T09:23:50.780Z,3.91
2023-03-28T09:26:17.117Z,3.54
2023-03-28T09:28:43.411Z,3.47
2023-03-28T09:31:09.696Z,2.99
2023-03-28T09:33:36.123Z,3.51
2023-03-28T09:36:02.493Z,3.24
2023-03-28T09:38:28.811Z,3.11
2023-03-28T09:40:55.134Z,3.49
2023-03-28T09:43:21.430Z,3.53
2023-03-28T09:45:47.770Z,3.52
2023-03-28T09:48:14.170Z,3.59
2023-03-28T09:50:40.519Z,3.56
2023-03-28T09:53:06.816Z,3.39
2023-03-28T09:55:34.590Z,3.63
2023-03-28T09:58:01.039Z,3.32
2023-03-28T10:00:27.335Z,3.34
2023-03-28T10:02:53.671Z,3.50
2023-03-28T10:05:19.980Z,3.79
2023-03-28T10:07:46.302Z,3.63
2023-03-28T10:10:12.605Z,3.36
2023-03-28T10:12:38.916Z,3.18
2023-03-28T10:15:05.241Z,3.01
2023-03-28T10:17:31.611Z,3.08
2023-03-28T10:19:57.912Z,2.86
2023-03-28T10:22:24.211Z,2.23
2023-03-28T10:24:50.525Z,2.93
2023-03-28T10:27:16.858Z,2.22
2023-03-28T10:29:43.161Z,2.32
2023-03-28T10:32:09.486Z,2.77
2023-03-28T10:34:35.780Z,3.47
2023-03-28T10:37:02.079Z,4.01
2023-03-28T10:39:28.421Z,3.75
2023-03-28T10:41:54.708Z,3.52
2023-03-28T10:44:21.000Z,3.51
2023-03-28T10:46:47.328Z,3.15
2023-03-28T10:49:13.666Z,3.38
2023-03-28T10:51:40.011Z,3.39
2023-03-28T10:54:06.330Z,3.41
2023-03-28T10:56:32.637Z,3.15
2023-03-28T10:58:58.954Z,3.39
2023-03-28T11:01:25.366Z,3.30
2023-03-28T11:03:51.821Z,3.12
2023-03-28T11:06:18.246Z,3.44
2023-03-28T11:08:44.696Z,3.10
2023-03-28T11:11:10.995Z,2.49
2023-03-28T11:13:37.292Z,2.62
2023-03-28T11:16:03.704Z,2.32
2023-03-28T11:18:30.215Z,2.66
2023-03-28T11:20:56.585Z,2.57
2023-03-28T11:23:22.932Z,2.94
2023-03-28T11:25:49.235Z,2.68
2023-03-28T11:28:15.526Z,2.96
2023-03-28T11:30:41.842Z,2.86
2023-03-28T11:33:08.187Z,2.85
2023-03-28T11:35:34.525Z,3.10
2023-03-28T11:38:00.894Z,3.07
2023-03-28T11:40:27.189Z,3.15
2023-03-28T11:42:53.489Z,2.99
2023-03-28T11:45:19.812Z,3.45
2023-03-28T11:47:46.143Z,3.39
2023-03-28T11:50:12.537Z,3.47
2023-03-28T11:52:38.905Z,3.40
2023-03-28T11:55:05.201Z,2.83
2023-03-28T11:57:31.495Z,3.06
2023-03-28T11:59:57.811Z,3.37
2023-03-28T12:02:24.180Z,3.29
2023-03-28T12:04:50.633Z,3.28
2023-03-28T12:07:17.006Z,3.67
2023-03-28T12:09:43.323Z,3.85
2023-03-28T12:12:09.626Z,3.44
2023-03-28T12:14:35.943Z,3.09
2023-03-28T12:17:02.310Z,3.08
2023-03-28T12:19:28.647Z,2.99
2023-03-28T12:21:54.966Z,3.15
2023-03-28T12:24:21.261Z,2.91
2023-03-28T12:26:47.559Z,3.03
2023-03-28T12:29:13.887Z,3.46
2023-03-28T12:31:40.179Z,2.97
2023-03-28T12:34:06.476Z,3.09
2023-03-28T12:36:32.835Z,3.49
2023-03-28T12:38:59.148Z,3.33
2023-03-28T12:41:25.449Z,3.35
2023-03-28T12:43:51.764Z,3.14
2023-03-28T12:46:18.128Z,3.60
2023-03-28T12:48:44.433Z,2.93
2023-03-28T12:51:10.747Z,2.73
2023-03-28T12:53:37.057Z,2.80
2023-03-28T12:56:03.483Z,2.52
2023-03-28T12:58:29.828Z,2.94
2023-03-28T13:00:56.126Z,2.51
2023-03-28T13:03:22.422Z,2.54
2023-03-28T13:05:48.740Z,2.93
2023-03-28T13:08:15.049Z,2.66
2023-03-28T13:10:41.353Z,2.83
2023-03-28T13:13:07.708Z,2.79
2023-03-28T13:15:34.019Z,2.74
2023-03-28T13:18:00.369Z,2.12
2023-03-28T13:20:26.802Z,2.22
2023-03-28T13:22:53.115Z,2.61
2023-03-28T13:25:19.488Z,2.65
2023-03-28T13:27:45.820Z,2.76
2023-03-28T13:30:12.120Z,2.73
2023-03-28T13:32:38.435Z,2.70
2023-03-28T13:35:04.778Z,2.72
2023-03-28T13:37:31.070Z,2.38
2023-03-28T13:39:57.364Z,2.33
2023-03-28T13:42:23.686Z,2.48
2023-03-28T13:44:49.977Z,2.46
2023-03-28T13:47:16.264Z,2.65
2023-03-28T13:49:42.570Z,2.93
2023-03-28T13:52:08.861Z,3.43
2023-03-28T13:54:35.158Z,3.18
2023-03-28T13:57:01.515Z,3.21
2023-03-28T13:59:27.868Z,4.49
2023-03-28T14:01:54.191Z,3.46
2023-03-28T14:04:20.498Z,4.50
2023-03-28T14:06:46.780Z,3.71
2023-03-28T14:09:13.063Z,4.39
2023-03-28T14:11:39.359Z,4.96
2023-03-28T14:14:08.132Z,4.48
2023-03-28T14:16:35.745Z,4.94
2023-03-28T14:19:02.099Z,4.97
2023-03-28T14:21:28.389Z,4.54
2023-03-28T14:23:54.664Z,4.19
2023-03-28T14:26:20.956Z,4.23
2023-03-28T14:28:47.246Z,4.94
2023-03-28T14:31:13.614Z,5.06
2023-03-28T14:33:40.007Z,4.89
2023-03-28T14:36:06.439Z,5.30
2023-03-28T14:38:32.802Z,5.67
2023-03-28T14:40:59.345Z,5.57
2023-03-28T14:43:25.790Z,5.57
2023-03-28T14:45:52.125Z,5.50
2023-03-28T14:48:18.463Z,5.41
2023-03-28T14:50:44.751Z,5.58
2023-03-28T14:53:11.050Z,5.52
2023-03-28T14:55:37.361Z,5.58
2023-03-28T14:58:03.628Z,5.25
2023-03-28T15:00:29.919Z,4.82
2023-03-28T15:02:56.289Z,4.88
2023-03-28T15:05:22.696Z,4.93
2023-03-28T15:07:48.991Z,4.48
2023-03-28T15:10:15.289Z,4.94
2023-03-28T15:12:41.725Z,5.18
2023-03-28T15:15:08.241Z,5.22
2023-03-28T15:17:34.566Z,5.54
2023-03-28T15:20:00.897Z,5.55
2023-03-28T15:22:27.206Z,5.75
2023-03-28T15:24:53.536Z,5.74
2023-03-28T15:27:19.826Z,5.32
2023-03-28T15:29:46.111Z,5.54
2023-03-28T15:32:12.420Z,5.98
2023-03-28T15:34:38.702Z,5.76
2023-03-28T15:37:04.984Z,5.74
2023-03-28T15:39:31.287Z,5.47
2023-03-28T15:41:57.573Z,5.63
2023-03-28T15:44:23.874Z,5.40
2023-03-28T15:46:50.251Z,5.50
2023-03-28T15:49:16.562Z,5.43
2023-03-28T15:51:42.843Z,5.87
2023-03-28T15:54:14.605Z,5.58
2023-03-28T15:56:46.800Z,5.89
2023-03-28T15:59:13.119Z,6.72
2023-03-28T16:01:39.441Z,6.27
2023-03-28T16:04:05.853Z,6.04
2023-03-28T16:06:34.913Z,5.67
2023-03-28T16:09:02.726Z,6.10
2023-03-28T16:11:29.033Z,5.80
2023-03-28T16:13:55.361Z,5.60
2023-03-28T16:16:21.704Z,5.68
2023-03-28T16:18:48.027Z,5.67
2023-03-28T16:21:14.358Z,5.71
2023-03-28T16:23:40.659Z,5.67
2023-03-28T16:26:06.979Z,5.50
2023-03-28T16:28:33.349Z,5.40
2023-03-28T16:30:59.648Z,5.80
2023-03-28T16:33:25.963Z,5.93
2023-03-28T16:35:52.363Z,5.43
2023-03-28T16:38:18.708Z,5.51
2023-03-28T16:40:45.001Z,5.60
2023-03-28T16:43:11.387Z,5.23
2023-03-28T16:45:37.781Z,5.05
2023-03-28T16:48:04.138Z,5.37
2023-03-28T16:50:30.498Z,5.32
2023-03-28T16:52:56.791Z,5.54
2023-03-28T16:55:23.085Z,5.98
2023-03-28T16:57:49.392Z,6.09
2023-03-28T17:00:15.702Z,6.04
2023-03-28T17:02:42.088Z,5.96
2023-03-28T17:05:08.549Z,5.85
2023-03-28T17:07:34.866Z,5.74
2023-03-28T17:10:01.170Z,5.15
2023-03-28T17:12:27.497Z,5.62
2023-03-28T17:14:53.832Z,5.71
2023-03-28T17:17:20.275Z,5.68
2023-03-28T17:19:46.590Z,5.53
2023-03-28T17:22:12.883Z,5.55
2023-03-28T17:24:39.191Z,5.55
2023-03-28T17:27:05.505Z,5.90
2023-03-28T17:29:31.807Z,5.55
2023-03-28T17:31:58.302Z,5.78
2023-03-28T17:34:24.672Z,5.76
2023-03-28T17:36:50.984Z,5.34
2023-03-28T17:39:17.288Z,5.84
2023-03-28T17:41:43.617Z,5.93
2023-03-28T17:44:09.927Z,6.19
2023-03-28T17:46:36.264Z,6.19
2023-03-28T17:49:02.602Z,6.14
2023-03-28T17:51:28.955Z,5.48
2023-03-28T17:53:55.264Z,5.92
2023-03-28T17:56:21.645Z,6.53
2023-03-28T17:58:47.986Z,5.38
2023-03-28T18:01:14.340Z,5.10
2023-03-28T18:03:40.722Z,5.20
2023-03-28T18:06:07.168Z,5.25
2023-03-28T18:08:33.475Z,5.02
2023-03-28T18:10:59.798Z,4.94
2023-03-28T18:13:26.100Z,4.60
2023-03-28T18:15:52.415Z,4.15
2023-03-28T18:18:18.770Z,3.77
2023-03-28T18:20:45.092Z,3.91
2023-03-28T18:23:11.387Z,4.13
2023-03-28T18:25:37.692Z,5.36
2023-03-28T18:28:03.998Z,5.66
2023-03-28T18:30:30.294Z,5.70
2023-03-28T18:32:56.624Z,5.51
2023-03-28T18:35:22.947Z,5.77
2023-03-28T18:37:49.264Z,6.58
2023-03-28T18:40:15.607Z,7.20
2023-03-28T18:42:41.886Z,6.78
2023-03-28T18:45:08.187Z,6.78
2023-03-28T18:47:34.564Z,6.75
2023-03-28T18:50:00.894Z,6.24
2023-03-28T18:52:29.480Z,5.87
2023-03-28T18:54:56.012Z,6.54
2023-03-28T18:57:22.407Z,7.61
2023-03-28T18:59:48.781Z,6.40
2023-03-28T19:02:15.167Z,6.67
2023-03-28T19:04:41.526Z,5.84
2023-03-28T19:07:07.832Z,6.38
2023-03-28T19:09:34.138Z,6.21
2023-03-28T19:12:00.437Z,6.01
2023-03-28T19:14:26.739Z,5.69
2023-03-28T19:16:53.096Z,5.58
2023-03-28T19:19:19.546Z,5.90
2023-03-28T19:21:45.836Z,5.43
2023-03-28T19:24:12.158Z,5.81
2023-03-28T19:26:38.451Z,6.25
2023-03-28T19:29:04.747Z,6.23
2023-03-28T19:31:31.054Z,5.77
2023-03-28T19:33:57.348Z,5.77
2023-03-28T19:36:23.672Z,5.72
2023-03-28T19:38:50.016Z,5.19
2023-03-28T19:41:16.343Z,5.36
2023-03-28T19:43:42.656Z,5.45
2023-03-28T19:46:09.106Z,5.74
2023-03-28T19:48:35.465Z,5.31
2023-03-28T19:51:01.766Z,5.28
2023-03-28T19:53:28.100Z,4.87
2023-03-28T19:55:54.426Z,4.99
2023-03-28T19:58:20.774Z,4.96
2023-03-28T20:00:47.090Z,5.06
2023-03-28T20:03:13.494Z,4.85
2023-03-28T20:05:39.815Z,4.71
2023-03-28T20:08:06.222Z,5.02
2023-03-28T20:10:32.518Z,4.78
2023-03-28T20:12:58.825Z,5.02
2023-03-28T20:15:25.138Z,4.35
2023-03-28T20:17:51.467Z,4.60
2023-03-28T20:20:17.819Z,4.70
2023-03-28T20:22:44.146Z,5.11
2023-03-28T20:25:10.464Z,4.88
2023-03-28T20:27:36.828Z,4.76
2023-03-28T20:30:03.162Z,4.67
2023-03-28T20:32:29.448Z,4.51
2023-03-28T20:34:55.748Z,4.95
2023-03-28T20:37:22.077Z,4.84
2023-03-28T20:39:48.361Z,5.22
2023-03-28T20:42:14.650Z,5.23
2023-03-28T20:44:40.965Z,4.97
2023-03-28T20:47:07.322Z,5.20
2023-03-28T20:49:33.698Z,5.78
2023-03-28T20:52:00.052Z,5.94
2023-03-28T20:54:26.394Z,6.09
2023-03-28T20:56:52.776Z,6.06
2023-03-28T20:59:19.142Z,5.75
2023-03-28T21:01:45.461Z,5.70
2023-03-28T21:04:11.746Z,5.66
2023-03-28T21:06:38.064Z,5.97
2023-03-28T21:09:04.381Z,5.72
2023-03-28T21:11:30.691Z,5.44
2023-03-28T21:13:57.021Z,5.56
2023-03-28T21:16:23.442Z,5.73
2023-03-28T21:18:49.814Z,5.86
2023-03-28T21:21:16.123Z,6.10
2023-03-28T21:23:42.425Z,5.56
2023-03-28T21:26:08.719Z,5.64
2023-03-28T21:28:35.050Z,5.41
2023-03-28T21:31:01.532Z,5.66
2023-03-28T21:33:28.009Z,5.77
2023-03-28T21:35:54.359Z,5.91
2023-03-28T21:38:20.788Z,6.28
2023-03-28T21:40:47.093Z,6.26
2023-03-28T21:43:13.429Z,6.25
2023-03-28T21:45:39.729Z,6.38
2023-03-28T21:48:06.137Z,6.34
2023-03-28T21:50:32.473Z,6.38
2023-03-28T21:52:58.762Z,6.16
2023-03-28T21:55:25.054Z,6.36
2023-03-28T21:57:51.403Z,6.41
2023-03-28T22:00:17.703Z,5.94
2023-03-28T22:02:44.061Z,6.15
2023-03-28T22:05:19.015Z,6.44
2023-03-28T22:07:52.798Z,6.65
2023-03-28T22:10:19.124Z,7.09
2023-03-28T22:12:45.469Z,6.69
2023-03-28T22:15:11.760Z,6.24
2023-03-28T22:17:38.192Z,6.05
2023-03-28T22:20:04.494Z,6.08
2023-03-28T22:22:30.801Z,6.06
2023-03-28T22:24:57.111Z,7.09
2023-03-28T22:27:23.413Z,6.24
2023-03-28T22:29:49.708Z,6.32
2023-03-28T22:32:16.028Z,5.59
2023-03-28T22:34:42.358Z,5.93
2023-03-28T22:37:08.656Z,6.11
2023-03-28T22:39:34.981Z,5.63
2023-03-28T22:42:01.292Z,6.34
2023-03-28T22:44:27.580Z,6.62
2023-03-28T22:46:53.962Z,6.34
2023-03-28T22:49:26.142Z,6.20
2023-03-28T22:51:52.441Z,5.96
2023-03-28T22:54:18.791Z,6.16
2023-03-28T22:56:45.096Z,5.69
2023-03-28T22:59:11.491Z,5.99
2023-03-28T23:01:37.929Z,5.89
2023-03-28T23:04:04.313Z,6.12
2023-03-28T23:06:30.626Z,5.66
2023-03-28T23:08:56.943Z,5.47
2023-03-28T23:11:23.233Z,5.74
2023-03-28T23:13:49.522Z,5.01
2023-03-28T23:16:15.926Z,4.76
2023-03-28T23:18:43.424Z,4.90
2023-03-28T23:21:09.730Z,4.76
2023-03-28T23:23:36.049Z,4.43
2023-03-28T23:26:02.340Z,4.42
2023-03-28T23:28:28.640Z,4.27
2023-03-28T23:30:54.962Z,4.34
2023-03-28T23:33:21.252Z,4.92
2023-03-28T23:35:47.587Z,4.81
2023-03-28T23:38:14.083Z,4.79
2023-03-28T23:40:40.401Z,4.48
2023-03-28T23:43:06.709Z,4.20
2023-03-28T23:45:33.069Z,4.31
2023-03-28T23:47:59.411Z,4.35
2023-03-28T23:50:25.726Z,4.40
2023-03-28T23:52:52.049Z,4.50
2023-03-28T23:55:18.339Z,4.57
2023-03-28T23:57:44.644Z,4.68
